sensor_id;sensor_type;location;lat;lon;timestamp;temperature;humidity
57566;DHT22;63999;43.882;-0.310;2024-02-26T00:01:37;9.50;98.80
57566;DHT22;63999;43.882;-0.310;2024-02-26T00:04:05;9.50;98.80
57566;DHT22;63999;43.882;-0.310;2024-02-26T00:06:33;9.50;99.10
57566;DHT22;63999;43.882;-0.310;2024-02-26T00:09:00;9.60;99.10
57566;DHT22;63999;43.882;-0.310;2024-02-26T00:11:29;9.60;99.10
57566;DHT22;63999;43.882;-0.310;2024-02-26T00:13:56;9.60;99.00
57566;DHT22;63999;43.882;-0.310;2024-02-26T00:16:24;9.60;98.80
57566;DHT22;63999;43.882;-0.310;2024-02-26T00:18:52;9.60;98.80
57566;DHT22;63999;43.882;-0.310;2024-02-26T00:21:19;9.60;98.80
57566;DHT22;63999;43.882;-0.310;2024-02-26T00:23:46;9.50;99.00
57566;DHT22;63999;43.882;-0.310;2024-02-26T00:26:14;9.50;99.10
57566;DHT22;63999;43.882;-0.310;2024-02-26T00:28:43;9.60;99.00
57566;DHT22;63999;43.882;-0.310;2024-02-26T00:31:10;9.60;98.90
57566;DHT22;63999;43.882;-0.310;2024-02-26T00:33:38;9.50;99.00
57566;DHT22;63999;43.882;-0.310;2024-02-26T00:36:06;9.60;99.20
57566;DHT22;63999;43.882;-0.310;2024-02-26T00:38:36;9.60;99.10
57566;DHT22;63999;43.882;-0.310;2024-02-26T00:41:03;9.60;99.00
57566;DHT22;63999;43.882;-0.310;2024-02-26T00:43:31;9.60;98.90
57566;DHT22;63999;43.882;-0.310;2024-02-26T00:45:58;9.60;98.90
57566;DHT22;63999;43.882;-0.310;2024-02-26T00:48:26;9.60;98.90
57566;DHT22;63999;43.882;-0.310;2024-02-26T00:50:54;9.60;98.80
57566;DHT22;63999;43.882;-0.310;2024-02-26T00:53:21;9.60;98.70
57566;DHT22;63999;43.882;-0.310;2024-02-26T00:55:51;9.50;98.70
57566;DHT22;63999;43.882;-0.310;2024-02-26T00:58:19;9.50;98.70
57566;DHT22;63999;43.882;-0.310;2024-02-26T01:00:47;9.50;98.60
57566;DHT22;63999;43.882;-0.310;2024-02-26T01:03:14;9.50;98.60
57566;DHT22;63999;43.882;-0.310;2024-02-26T01:05:42;9.50;98.70
57566;DHT22;63999;43.882;-0.310;2024-02-26T01:08:09;9.50;98.60
57566;DHT22;63999;43.882;-0.310;2024-02-26T01:10:36;9.50;98.50
57566;DHT22;63999;43.882;-0.310;2024-02-26T01:13:04;9.50;98.60
57566;DHT22;63999;43.882;-0.310;2024-02-26T01:15:32;9.50;98.60
57566;DHT22;63999;43.882;-0.310;2024-02-26T01:17:59;9.50;98.80
57566;DHT22;63999;43.882;-0.310;2024-02-26T01:20:26;9.50;98.80
57566;DHT22;63999;43.882;-0.310;2024-02-26T01:22:53;9.50;99.00
57566;DHT22;63999;43.882;-0.310;2024-02-26T01:25:20;9.50;99.20
57566;DHT22;63999;43.882;-0.310;2024-02-26T01:27:48;9.60;99.00
57566;DHT22;63999;43.882;-0.310;2024-02-26T01:30:16;9.60;99.20
57566;DHT22;63999;43.882;-0.310;2024-02-26T01:32:43;9.60;99.10
57566;DHT22;63999;43.882;-0.310;2024-02-26T01:35:11;9.60;99.10
57566;DHT22;63999;43.882;-0.310;2024-02-26T01:37:39;9.60;99.40
57566;DHT22;63999;43.882;-0.310;2024-02-26T01:40:07;9.70;99.10
57566;DHT22;63999;43.882;-0.310;2024-02-26T01:42:34;9.60;99.20
57566;DHT22;63999;43.882;-0.310;2024-02-26T01:45:02;9.60;99.10
57566;DHT22;63999;43.882;-0.310;2024-02-26T01:47:30;9.60;99.10
57566;DHT22;63999;43.882;-0.310;2024-02-26T01:50:01;9.70;99.00
57566;DHT22;63999;43.882;-0.310;2024-02-26T01:52:28;9.60;98.90
57566;DHT22;63999;43.882;-0.310;2024-02-26T01:54:55;9.60;98.90
57566;DHT22;63999;43.882;-0.310;2024-02-26T01:57:23;9.60;99.00
57566;DHT22;63999;43.882;-0.310;2024-02-26T01:59:50;9.60;99.10
57566;DHT22;63999;43.882;-0.310;2024-02-26T02:02:18;9.60;99.10
57566;DHT22;63999;43.882;-0.310;2024-02-26T02:04:46;9.60;99.00
57566;DHT22;63999;43.882;-0.310;2024-02-26T02:07:14;9.60;98.90
57566;DHT22;63999;43.882;-0.310;2024-02-26T02:09:42;9.60;98.90
57566;DHT22;63999;43.882;-0.310;2024-02-26T02:12:09;9.60;99.00
57566;DHT22;63999;43.882;-0.310;2024-02-26T02:14:38;9.60;98.80
57566;DHT22;63999;43.882;-0.310;2024-02-26T02:17:05;9.60;99.00
57566;DHT22;63999;43.882;-0.310;2024-02-26T02:19:32;9.60;99.20
57566;DHT22;63999;43.882;-0.310;2024-02-26T02:22:00;9.70;99.30
57566;DHT22;63999;43.882;-0.310;2024-02-26T02:24:27;9.70;99.00
57566;DHT22;63999;43.882;-0.310;2024-02-26T02:26:57;9.70;99.10
57566;DHT22;63999;43.882;-0.310;2024-02-26T02:29:25;9.70;99.10
57566;DHT22;63999;43.882;-0.310;2024-02-26T02:31:53;9.70;99.00
57566;DHT22;63999;43.882;-0.310;2024-02-26T02:34:21;9.60;98.80
57566;DHT22;63999;43.882;-0.310;2024-02-26T02:36:52;9.70;99.00
57566;DHT22;63999;43.882;-0.310;2024-02-26T02:39:19;9.70;99.10
57566;DHT22;63999;43.882;-0.310;2024-02-26T02:41:46;9.60;99.10
57566;DHT22;63999;43.882;-0.310;2024-02-26T02:44:13;9.70;98.80
57566;DHT22;63999;43.882;-0.310;2024-02-26T02:46:41;9.60;98.80
57566;DHT22;63999;43.882;-0.310;2024-02-26T02:49:09;9.60;98.70
57566;DHT22;63999;43.882;-0.310;2024-02-26T02:51:37;9.60;98.70
57566;DHT22;63999;43.882;-0.310;2024-02-26T02:54:05;9.60;98.70
57566;DHT22;63999;43.882;-0.310;2024-02-26T02:56:35;9.60;98.90
57566;DHT22;63999;43.882;-0.310;2024-02-26T02:59:02;9.60;98.90
57566;DHT22;63999;43.882;-0.310;2024-02-26T03:01:30;9.60;99.30
57566;DHT22;63999;43.882;-0.310;2024-02-26T03:03:58;9.70;99.20
57566;DHT22;63999;43.882;-0.310;2024-02-26T03:06:25;9.70;99.10
57566;DHT22;63999;43.882;-0.310;2024-02-26T03:08:55;9.70;99.10
57566;DHT22;63999;43.882;-0.310;2024-02-26T03:11:22;9.70;99.30
57566;DHT22;63999;43.882;-0.310;2024-02-26T03:13:49;9.70;99.20
57566;DHT22;63999;43.882;-0.310;2024-02-26T03:16:17;9.70;99.10
57566;DHT22;63999;43.882;-0.310;2024-02-26T03:18:44;9.70;99.00
57566;DHT22;63999;43.882;-0.310;2024-02-26T03:21:12;9.70;99.10
57566;DHT22;63999;43.882;-0.310;2024-02-26T03:23:39;9.70;99.00
57566;DHT22;63999;43.882;-0.310;2024-02-26T03:26:06;9.70;99.10
57566;DHT22;63999;43.882;-0.310;2024-02-26T03:28:35;9.70;98.90
57566;DHT22;63999;43.882;-0.310;2024-02-26T03:31:03;9.70;98.80
57566;DHT22;63999;43.882;-0.310;2024-02-26T03:33:30;9.60;98.90
57566;DHT22;63999;43.882;-0.310;2024-02-26T03:35:58;9.60;98.80
57566;DHT22;63999;43.882;-0.310;2024-02-26T03:38:26;9.60;98.70
57566;DHT22;63999;43.882;-0.310;2024-02-26T03:40:53;9.60;98.70
57566;DHT22;63999;43.882;-0.310;2024-02-26T03:43:21;9.60;98.60
57566;DHT22;63999;43.882;-0.310;2024-02-26T03:45:49;9.60;98.70
57566;DHT22;63999;43.882;-0.310;2024-02-26T03:48:16;9.60;98.80
57566;DHT22;63999;43.882;-0.310;2024-02-26T03:50:43;9.60;98.80
57566;DHT22;63999;43.882;-0.310;2024-02-26T03:53:11;9.60;98.80
57566;DHT22;63999;43.882;-0.310;2024-02-26T03:55:41;9.60;98.70
57566;DHT22;63999;43.882;-0.310;2024-02-26T03:58:12;9.60;98.70
57566;DHT22;63999;43.882;-0.310;2024-02-26T04:00:39;9.60;98.70
57566;DHT22;63999;43.882;-0.310;2024-02-26T04:03:07;9.60;98.80
57566;DHT22;63999;43.882;-0.310;2024-02-26T04:05:34;9.60;99.00
57566;DHT22;63999;43.882;-0.310;2024-02-26T04:08:01;9.60;99.00
57566;DHT22;63999;43.882;-0.310;2024-02-26T04:10:31;9.60;99.00
57566;DHT22;63999;43.882;-0.310;2024-02-26T04:12:58;9.60;98.90
57566;DHT22;63999;43.882;-0.310;2024-02-26T04:15:26;9.60;98.80
57566;DHT22;63999;43.882;-0.310;2024-02-26T04:17:53;9.60;98.70
57566;DHT22;63999;43.882;-0.310;2024-02-26T04:20:21;9.60;98.80
57566;DHT22;63999;43.882;-0.310;2024-02-26T04:22:48;9.60;98.90
57566;DHT22;63999;43.882;-0.310;2024-02-26T04:25:15;9.60;98.90
57566;DHT22;63999;43.882;-0.310;2024-02-26T04:27:42;9.60;99.00
57566;DHT22;63999;43.882;-0.310;2024-02-26T04:30:10;9.60;99.20
57566;DHT22;63999;43.882;-0.310;2024-02-26T04:32:38;9.70;98.90
57566;DHT22;63999;43.882;-0.310;2024-02-26T04:35:05;9.60;98.90
57566;DHT22;63999;43.882;-0.310;2024-02-26T04:37:33;9.60;98.90
57566;DHT22;63999;43.882;-0.310;2024-02-26T04:40:01;9.60;98.90
57566;DHT22;63999;43.882;-0.310;2024-02-26T04:42:29;9.60;98.80
57566;DHT22;63999;43.882;-0.310;2024-02-26T04:44:57;9.60;98.80
57566;DHT22;63999;43.882;-0.310;2024-02-26T04:47:26;9.60;98.80
57566;DHT22;63999;43.882;-0.310;2024-02-26T04:49:54;9.60;98.80
57566;DHT22;63999;43.882;-0.310;2024-02-26T04:52:22;9.60;98.90
57566;DHT22;63999;43.882;-0.310;2024-02-26T04:54:49;9.60;98.70
57566;DHT22;63999;43.882;-0.310;2024-02-26T04:57:17;9.60;98.70
57566;DHT22;63999;43.882;-0.310;2024-02-26T04:59:47;9.60;98.80
57566;DHT22;63999;43.882;-0.310;2024-02-26T05:02:14;9.60;98.70
57566;DHT22;63999;43.882;-0.310;2024-02-26T05:04:42;9.60;98.60
57566;DHT22;63999;43.882;-0.310;2024-02-26T05:07:09;9.60;98.70
57566;DHT22;63999;43.882;-0.310;2024-02-26T05:09:40;9.50;98.60
57566;DHT22;63999;43.882;-0.310;2024-02-26T05:12:09;9.50;98.60
57566;DHT22;63999;43.882;-0.310;2024-02-26T05:14:37;9.50;98.60
57566;DHT22;63999;43.882;-0.310;2024-02-26T05:17:04;9.60;98.80
57566;DHT22;63999;43.882;-0.310;2024-02-26T05:19:32;9.50;98.60
57566;DHT22;63999;43.882;-0.310;2024-02-26T05:22:02;9.60;98.70
57566;DHT22;63999;43.882;-0.310;2024-02-26T05:24:30;9.60;98.80
57566;DHT22;63999;43.882;-0.310;2024-02-26T05:27:00;9.60;98.80
57566;DHT22;63999;43.882;-0.310;2024-02-26T05:29:27;9.60;98.80
57566;DHT22;63999;43.882;-0.310;2024-02-26T05:31:55;9.60;99.00
57566;DHT22;63999;43.882;-0.310;2024-02-26T05:34:22;9.60;98.80
57566;DHT22;63999;43.882;-0.310;2024-02-26T05:36:50;9.50;98.80
57566;DHT22;63999;43.882;-0.310;2024-02-26T05:39:17;9.60;98.70
57566;DHT22;63999;43.882;-0.310;2024-02-26T05:41:47;9.60;98.80
57566;DHT22;63999;43.882;-0.310;2024-02-26T05:44:14;9.60;98.90
57566;DHT22;63999;43.882;-0.310;2024-02-26T05:46:45;9.60;98.80
57566;DHT22;63999;43.882;-0.310;2024-02-26T05:49:14;9.60;98.80
57566;DHT22;63999;43.882;-0.310;2024-02-26T05:51:42;9.50;98.80
57566;DHT22;63999;43.882;-0.310;2024-02-26T05:54:09;9.50;98.70
57566;DHT22;63999;43.882;-0.310;2024-02-26T05:56:39;9.50;98.80
57566;DHT22;63999;43.882;-0.310;2024-02-26T05:59:07;9.50;98.90
57566;DHT22;63999;43.882;-0.310;2024-02-26T06:01:34;9.60;98.80
57566;DHT22;63999;43.882;-0.310;2024-02-26T06:04:02;9.50;98.70
57566;DHT22;63999;43.882;-0.310;2024-02-26T06:06:29;9.50;99.00
57566;DHT22;63999;43.882;-0.310;2024-02-26T06:08:56;9.60;98.90
57566;DHT22;63999;43.882;-0.310;2024-02-26T06:11:24;9.50;98.80
57566;DHT22;63999;43.882;-0.310;2024-02-26T06:13:51;9.50;98.80
57566;DHT22;63999;43.882;-0.310;2024-02-26T06:16:18;9.50;98.90
57566;DHT22;63999;43.882;-0.310;2024-02-26T06:18:45;9.50;99.00
57566;DHT22;63999;43.882;-0.310;2024-02-26T06:21:14;9.60;99.00
57566;DHT22;63999;43.882;-0.310;2024-02-26T06:23:41;9.60;98.80
57566;DHT22;63999;43.882;-0.310;2024-02-26T06:26:09;9.60;98.90
57566;DHT22;63999;43.882;-0.310;2024-02-26T06:28:38;9.50;98.70
57566;DHT22;63999;43.882;-0.310;2024-02-26T06:31:08;9.50;98.80
57566;DHT22;63999;43.882;-0.310;2024-02-26T06:33:35;9.50;98.80
57566;DHT22;63999;43.882;-0.310;2024-02-26T06:36:02;9.50;98.70
57566;DHT22;63999;43.882;-0.310;2024-02-26T06:38:30;9.50;98.70
57566;DHT22;63999;43.882;-0.310;2024-02-26T06:40:57;9.50;98.80
57566;DHT22;63999;43.882;-0.310;2024-02-26T06:43:24;9.50;98.70
57566;DHT22;63999;43.882;-0.310;2024-02-26T06:45:52;9.50;98.80
57566;DHT22;63999;43.882;-0.310;2024-02-26T06:48:20;9.50;98.90
57566;DHT22;63999;43.882;-0.310;2024-02-26T06:50:47;9.50;98.80
57566;DHT22;63999;43.882;-0.310;2024-02-26T06:53:15;9.50;98.70
57566;DHT22;63999;43.882;-0.310;2024-02-26T06:55:43;9.50;98.70
57566;DHT22;63999;43.882;-0.310;2024-02-26T06:58:10;9.40;98.50
57566;DHT22;63999;43.882;-0.310;2024-02-26T07:00:37;9.40;98.50
57566;DHT22;63999;43.882;-0.310;2024-02-26T07:03:08;9.40;98.50
57566;DHT22;63999;43.882;-0.310;2024-02-26T07:05:36;9.40;98.60
57566;DHT22;63999;43.882;-0.310;2024-02-26T07:08:04;9.40;98.50
57566;DHT22;63999;43.882;-0.310;2024-02-26T07:10:32;9.40;98.60
57566;DHT22;63999;43.882;-0.310;2024-02-26T07:13:00;9.40;98.90
57566;DHT22;63999;43.882;-0.310;2024-02-26T07:15:33;9.40;98.70
57566;DHT22;63999;43.882;-0.310;2024-02-26T07:18:01;9.40;98.90
57566;DHT22;63999;43.882;-0.310;2024-02-26T07:20:30;9.40;98.70
57566;DHT22;63999;43.882;-0.310;2024-02-26T07:23:01;9.40;98.70
57566;DHT22;63999;43.882;-0.310;2024-02-26T07:25:30;9.40;98.60
57566;DHT22;63999;43.882;-0.310;2024-02-26T07:27:57;9.40;98.70
57566;DHT22;63999;43.882;-0.310;2024-02-26T07:30:24;9.40;98.60
57566;DHT22;63999;43.882;-0.310;2024-02-26T07:32:52;9.40;98.60
57566;DHT22;63999;43.882;-0.310;2024-02-26T07:35:19;9.40;98.60
57566;DHT22;63999;43.882;-0.310;2024-02-26T07:37:50;9.40;98.60
57566;DHT22;63999;43.882;-0.310;2024-02-26T07:40:17;9.40;98.60
57566;DHT22;63999;43.882;-0.310;2024-02-26T07:42:44;9.40;98.70
57566;DHT22;63999;43.882;-0.310;2024-02-26T07:45:12;9.40;98.60
57566;DHT22;63999;43.882;-0.310;2024-02-26T07:47:39;9.40;98.60
57566;DHT22;63999;43.882;-0.310;2024-02-26T07:50:08;9.40;98.60
57566;DHT22;63999;43.882;-0.310;2024-02-26T07:52:36;9.40;98.60
57566;DHT22;63999;43.882;-0.310;2024-02-26T07:55:03;9.40;98.70
57566;DHT22;63999;43.882;-0.310;2024-02-26T07:57:35;9.40;98.60
57566;DHT22;63999;43.882;-0.310;2024-02-26T08:00:03;9.40;98.60
57566;DHT22;63999;43.882;-0.310;2024-02-26T08:02:30;9.40;98.40
57566;DHT22;63999;43.882;-0.310;2024-02-26T08:04:58;9.40;98.60
57566;DHT22;63999;43.882;-0.310;2024-02-26T08:07:25;9.40;98.80
57566;DHT22;63999;43.882;-0.310;2024-02-26T08:09:54;9.40;98.70
57566;DHT22;63999;43.882;-0.310;2024-02-26T08:12:21;9.40;98.70
57566;DHT22;63999;43.882;-0.310;2024-02-26T08:14:48;9.40;98.60
57566;DHT22;63999;43.882;-0.310;2024-02-26T08:17:15;9.40;98.70
57566;DHT22;63999;43.882;-0.310;2024-02-26T08:19:42;9.40;98.70
57566;DHT22;63999;43.882;-0.310;2024-02-26T08:22:09;9.40;98.60
57566;DHT22;63999;43.882;-0.310;2024-02-26T08:24:43;9.40;98.60
57566;DHT22;63999;43.882;-0.310;2024-02-26T08:27:10;9.40;98.70
57566;DHT22;63999;43.882;-0.310;2024-02-26T08:29:38;9.40;98.70
57566;DHT22;63999;43.882;-0.310;2024-02-26T08:32:05;9.40;98.60
57566;DHT22;63999;43.882;-0.310;2024-02-26T08:34:33;9.40;98.60
57566;DHT22;63999;43.882;-0.310;2024-02-26T08:37:03;9.40;98.60
57566;DHT22;63999;43.882;-0.310;2024-02-26T08:39:30;9.40;98.60
57566;DHT22;63999;43.882;-0.310;2024-02-26T08:41:59;9.40;98.70
57566;DHT22;63999;43.882;-0.310;2024-02-26T08:44:26;9.40;98.60
57566;DHT22;63999;43.882;-0.310;2024-02-26T08:46:54;9.40;98.70
57566;DHT22;63999;43.882;-0.310;2024-02-26T08:49:22;9.40;98.50
57566;DHT22;63999;43.882;-0.310;2024-02-26T08:51:51;9.40;98.50
57566;DHT22;63999;43.882;-0.310;2024-02-26T08:54:17;9.40;98.50
57566;DHT22;63999;43.882;-0.310;2024-02-26T08:56:45;9.40;98.50
57566;DHT22;63999;43.882;-0.310;2024-02-26T08:59:13;9.40;98.70
57566;DHT22;63999;43.882;-0.310;2024-02-26T09:01:43;9.40;98.50
57566;DHT22;63999;43.882;-0.310;2024-02-26T09:04:10;9.40;98.80
57566;DHT22;63999;43.882;-0.310;2024-02-26T09:06:37;9.40;98.80
57566;DHT22;63999;43.882;-0.310;2024-02-26T09:09:04;9.40;98.60
57566;DHT22;63999;43.882;-0.310;2024-02-26T09:11:32;9.40;98.60
57566;DHT22;63999;43.882;-0.310;2024-02-26T09:14:00;9.40;98.60
57566;DHT22;63999;43.882;-0.310;2024-02-26T09:16:28;9.40;99.10
57566;DHT22;63999;43.882;-0.310;2024-02-26T09:18:56;9.40;98.80
57566;DHT22;63999;43.882;-0.310;2024-02-26T09:21:23;9.40;98.90
57566;DHT22;63999;43.882;-0.310;2024-02-26T09:23:52;9.40;98.90
57566;DHT22;63999;43.882;-0.310;2024-02-26T09:26:20;9.40;98.70
57566;DHT22;63999;43.882;-0.310;2024-02-26T09:28:50;9.40;98.80
57566;DHT22;63999;43.882;-0.310;2024-02-26T09:31:19;9.40;98.70
57566;DHT22;63999;43.882;-0.310;2024-02-26T09:33:46;9.40;98.70
57566;DHT22;63999;43.882;-0.310;2024-02-26T09:36:14;9.40;98.50
57566;DHT22;63999;43.882;-0.310;2024-02-26T09:38:42;9.40;98.60
57566;DHT22;63999;43.882;-0.310;2024-02-26T09:41:22;9.40;98.50
57566;DHT22;63999;43.882;-0.310;2024-02-26T09:43:52;9.40;98.50
57566;DHT22;63999;43.882;-0.310;2024-02-26T09:46:23;9.40;98.50
57566;DHT22;63999;43.882;-0.310;2024-02-26T09:48:51;9.40;98.60
57566;DHT22;63999;43.882;-0.310;2024-02-26T09:51:19;9.40;98.60
57566;DHT22;63999;43.882;-0.310;2024-02-26T09:53:47;9.40;98.50
57566;DHT22;63999;43.882;-0.310;2024-02-26T09:56:19;9.40;98.60
57566;DHT22;63999;43.882;-0.310;2024-02-26T09:58:46;9.40;98.60
57566;DHT22;63999;43.882;-0.310;2024-02-26T10:01:19;9.40;98.60
57566;DHT22;63999;43.882;-0.310;2024-02-26T10:03:52;9.40;98.60
57566;DHT22;63999;43.882;-0.310;2024-02-26T10:06:22;9.40;98.60
57566;DHT22;63999;43.882;-0.310;2024-02-26T10:08:51;9.40;98.60
57566;DHT22;63999;43.882;-0.310;2024-02-26T10:11:24;9.40;98.90
57566;DHT22;63999;43.882;-0.310;2024-02-26T10:13:51;9.40;98.80
57566;DHT22;63999;43.882;-0.310;2024-02-26T10:16:21;9.40;98.80
57566;DHT22;63999;43.882;-0.310;2024-02-26T10:18:52;9.40;98.80
57566;DHT22;63999;43.882;-0.310;2024-02-26T10:21:26;9.40;98.60
57566;DHT22;63999;43.882;-0.310;2024-02-26T10:23:54;9.40;98.70
57566;DHT22;63999;43.882;-0.310;2024-02-26T10:26:22;9.40;98.70
57566;DHT22;63999;43.882;-0.310;2024-02-26T10:28:49;9.40;98.80
57566;DHT22;63999;43.882;-0.310;2024-02-26T10:31:21;9.40;98.70
57566;DHT22;63999;43.882;-0.310;2024-02-26T10:33:49;9.40;98.80
57566;DHT22;63999;43.882;-0.310;2024-02-26T10:36:17;9.40;98.80
57566;DHT22;63999;43.882;-0.310;2024-02-26T10:38:44;9.40;98.70
57566;DHT22;63999;43.882;-0.310;2024-02-26T10:41:14;9.40;98.70
57566;DHT22;63999;43.882;-0.310;2024-02-26T10:43:47;9.40;98.60
57566;DHT22;63999;43.882;-0.310;2024-02-26T10:46:14;9.40;98.80
57566;DHT22;63999;43.882;-0.310;2024-02-26T10:48:50;9.40;99.00
57566;DHT22;63999;43.882;-0.310;2024-02-26T10:51:25;9.40;99.20
57566;DHT22;63999;43.882;-0.310;2024-02-26T10:53:56;9.40;99.00
57566;DHT22;63999;43.882;-0.310;2024-02-26T10:56:29;9.40;99.00
57566;DHT22;63999;43.882;-0.310;2024-02-26T10:58:58;9.40;99.30
57566;DHT22;63999;43.882;-0.310;2024-02-26T11:01:27;9.40;99.10
57566;DHT22;63999;43.882;-0.310;2024-02-26T11:03:59;9.40;98.90
57566;DHT22;63999;43.882;-0.310;2024-02-26T11:06:28;9.40;99.20
57566;DHT22;63999;43.882;-0.310;2024-02-26T11:08:56;9.40;99.20
57566;DHT22;63999;43.882;-0.310;2024-02-26T11:11:25;9.40;98.90
57566;DHT22;63999;43.882;-0.310;2024-02-26T11:13:54;9.40;98.90
57566;DHT22;63999;43.882;-0.310;2024-02-26T11:16:23;9.40;98.90
57566;DHT22;63999;43.882;-0.310;2024-02-26T11:18:52;9.40;99.00
57566;DHT22;63999;43.882;-0.310;2024-02-26T11:21:22;9.40;99.20
57566;DHT22;63999;43.882;-0.310;2024-02-26T11:23:56;9.40;98.90
57566;DHT22;63999;43.882;-0.310;2024-02-26T11:26:24;9.40;98.90
57566;DHT22;63999;43.882;-0.310;2024-02-26T11:28:53;9.40;99.00
57566;DHT22;63999;43.882;-0.310;2024-02-26T11:31:25;9.40;98.80
57566;DHT22;63999;43.882;-0.310;2024-02-26T11:33:56;9.40;99.10
57566;DHT22;63999;43.882;-0.310;2024-02-26T11:36:24;9.40;99.20
57566;DHT22;63999;43.882;-0.310;2024-02-26T11:38:54;9.50;99.20
57566;DHT22;63999;43.882;-0.310;2024-02-26T11:41:22;9.50;99.20
57566;DHT22;63999;43.882;-0.310;2024-02-26T11:44:02;9.50;99.10
57566;DHT22;63999;43.882;-0.310;2024-02-26T11:46:33;9.50;99.10
57566;DHT22;63999;43.882;-0.310;2024-02-26T11:51:52;9.50;99.00
57566;DHT22;63999;43.882;-0.310;2024-02-26T11:57:30;9.50;98.90
57566;DHT22;63999;43.882;-0.310;2024-02-26T12:00:15;9.40;99.00
57566;DHT22;63999;43.882;-0.310;2024-02-26T12:02:51;9.50;99.00
57566;DHT22;63999;43.882;-0.310;2024-02-26T12:05:31;9.40;99.10
57566;DHT22;63999;43.882;-0.310;2024-02-26T12:08:00;9.50;99.10
57566;DHT22;63999;43.882;-0.310;2024-02-26T12:10:32;9.50;99.30
57566;DHT22;63999;43.882;-0.310;2024-02-26T12:13:17;9.50;99.50
57566;DHT22;63999;43.882;-0.310;2024-02-26T12:15:57;9.50;99.30
57566;DHT22;63999;43.882;-0.310;2024-02-26T12:18:26;9.50;99.10
57566;DHT22;63999;43.882;-0.310;2024-02-26T12:21:03;9.50;99.20
57566;DHT22;63999;43.882;-0.310;2024-02-26T12:23:31;9.50;99.30
57566;DHT22;63999;43.882;-0.310;2024-02-26T12:25:59;9.50;99.20
57566;DHT22;63999;43.882;-0.310;2024-02-26T12:28:29;9.50;99.10
57566;DHT22;63999;43.882;-0.310;2024-02-26T12:30:57;9.50;98.90
57566;DHT22;63999;43.882;-0.310;2024-02-26T12:33:27;9.50;98.90
57566;DHT22;63999;43.882;-0.310;2024-02-26T12:35:56;9.50;98.80
57566;DHT22;63999;43.882;-0.310;2024-02-26T12:38:24;9.50;99.00
57566;DHT22;63999;43.882;-0.310;2024-02-26T12:40:53;9.50;99.30
57566;DHT22;63999;43.882;-0.310;2024-02-26T12:43:20;9.50;99.10
57566;DHT22;63999;43.882;-0.310;2024-02-26T12:45:48;9.50;99.10
57566;DHT22;63999;43.882;-0.310;2024-02-26T12:48:15;9.50;99.10
57566;DHT22;63999;43.882;-0.310;2024-02-26T12:50:47;9.50;99.10
57566;DHT22;63999;43.882;-0.310;2024-02-26T12:53:14;9.50;99.10
57566;DHT22;63999;43.882;-0.310;2024-02-26T12:55:42;9.60;99.10
57566;DHT22;63999;43.882;-0.310;2024-02-26T12:58:11;9.60;99.30
57566;DHT22;63999;43.882;-0.310;2024-02-26T13:00:38;9.60;99.20
57566;DHT22;63999;43.882;-0.310;2024-02-26T13:03:06;9.60;99.20
57566;DHT22;63999;43.882;-0.310;2024-02-26T13:05:33;9.60;99.50
57566;DHT22;63999;43.882;-0.310;2024-02-26T13:08:05;9.60;99.60
57566;DHT22;63999;43.882;-0.310;2024-02-26T13:10:36;9.70;99.50
57566;DHT22;63999;43.882;-0.310;2024-02-26T13:13:04;9.70;99.30
57566;DHT22;63999;43.882;-0.310;2024-02-26T13:15:32;9.60;99.20
57566;DHT22;63999;43.882;-0.310;2024-02-26T13:18:12;9.60;99.00
57566;DHT22;63999;43.882;-0.310;2024-02-26T13:20:40;9.60;99.10
57566;DHT22;63999;43.882;-0.310;2024-02-26T13:23:11;9.60;99.20
57566;DHT22;63999;43.882;-0.310;2024-02-26T13:25:39;9.60;99.30
57566;DHT22;63999;43.882;-0.310;2024-02-26T13:28:18;9.60;99.20
57566;DHT22;63999;43.882;-0.310;2024-02-26T13:30:53;9.60;99.10
57566;DHT22;63999;43.882;-0.310;2024-02-26T13:33:28;9.70;99.10
57566;DHT22;63999;43.882;-0.310;2024-02-26T13:35:56;9.60;99.20
57566;DHT22;63999;43.882;-0.310;2024-02-26T13:38:23;9.60;99.10
57566;DHT22;63999;43.882;-0.310;2024-02-26T13:40:51;9.60;99.00
57566;DHT22;63999;43.882;-0.310;2024-02-26T13:43:19;9.60;99.20
57566;DHT22;63999;43.882;-0.310;2024-02-26T13:45:47;9.70;99.20
57566;DHT22;63999;43.882;-0.310;2024-02-26T13:48:14;9.60;99.30
57566;DHT22;63999;43.882;-0.310;2024-02-26T13:50:43;9.70;99.20
57566;DHT22;63999;43.882;-0.310;2024-02-26T13:53:13;9.70;99.20
57566;DHT22;63999;43.882;-0.310;2024-02-26T13:55:41;9.70;99.30
57566;DHT22;63999;43.882;-0.310;2024-02-26T13:58:14;9.70;99.20
57566;DHT22;63999;43.882;-0.310;2024-02-26T14:00:42;9.70;99.20
57566;DHT22;63999;43.882;-0.310;2024-02-26T14:03:10;9.70;99.10
57566;DHT22;63999;43.882;-0.310;2024-02-26T14:05:38;9.70;98.90
57566;DHT22;63999;43.882;-0.310;2024-02-26T14:08:10;9.70;99.00
57566;DHT22;63999;43.882;-0.310;2024-02-26T14:10:38;9.60;99.10
57566;DHT22;63999;43.882;-0.310;2024-02-26T14:13:06;9.60;99.20
57566;DHT22;63999;43.882;-0.310;2024-02-26T14:15:34;9.70;99.10
57566;DHT22;63999;43.882;-0.310;2024-02-26T14:18:03;9.70;99.10
57566;DHT22;63999;43.882;-0.310;2024-02-26T14:20:31;9.70;99.00
57566;DHT22;63999;43.882;-0.310;2024-02-26T14:23:02;9.70;99.00
57566;DHT22;63999;43.882;-0.310;2024-02-26T14:25:29;9.70;99.00
57566;DHT22;63999;43.882;-0.310;2024-02-26T14:27:57;9.70;99.00
57566;DHT22;63999;43.882;-0.310;2024-02-26T14:30:26;9.60;98.90
57566;DHT22;63999;43.882;-0.310;2024-02-26T14:32:54;9.60;98.80
57566;DHT22;63999;43.882;-0.310;2024-02-26T14:35:22;9.70;98.90
57566;DHT22;63999;43.882;-0.310;2024-02-26T14:37:49;9.60;98.80
57566;DHT22;63999;43.882;-0.310;2024-02-26T14:40:17;9.70;99.00
57566;DHT22;63999;43.882;-0.310;2024-02-26T14:42:47;9.70;98.90
57566;DHT22;63999;43.882;-0.310;2024-02-26T14:45:15;9.60;98.90
57566;DHT22;63999;43.882;-0.310;2024-02-26T14:47:43;9.60;98.90
57566;DHT22;63999;43.882;-0.310;2024-02-26T14:50:11;9.60;98.80
57566;DHT22;63999;43.882;-0.310;2024-02-26T14:52:38;9.60;98.80
57566;DHT22;63999;43.882;-0.310;2024-02-26T14:55:05;9.60;98.90
57566;DHT22;63999;43.882;-0.310;2024-02-26T14:57:33;9.60;98.70
57566;DHT22;63999;43.882;-0.310;2024-02-26T15:00:00;9.60;99.00
57566;DHT22;63999;43.882;-0.310;2024-02-26T15:02:28;9.60;98.90
57566;DHT22;63999;43.882;-0.310;2024-02-26T15:04:55;9.60;98.90
57566;DHT22;63999;43.882;-0.310;2024-02-26T15:07:22;9.60;98.80
57566;DHT22;63999;43.882;-0.310;2024-02-26T15:09:50;9.60;98.90
57566;DHT22;63999;43.882;-0.310;2024-02-26T15:12:20;9.60;98.80
57566;DHT22;63999;43.882;-0.310;2024-02-26T15:14:51;9.60;98.80
57566;DHT22;63999;43.882;-0.310;2024-02-26T15:17:18;9.60;98.80
57566;DHT22;63999;43.882;-0.310;2024-02-26T15:19:47;9.60;98.70
57566;DHT22;63999;43.882;-0.310;2024-02-26T15:22:14;9.60;98.80
57566;DHT22;63999;43.882;-0.310;2024-02-26T15:24:44;9.60;98.70
57566;DHT22;63999;43.882;-0.310;2024-02-26T15:27:11;9.60;98.70
57566;DHT22;63999;43.882;-0.310;2024-02-26T15:29:39;9.60;98.80
57566;DHT22;63999;43.882;-0.310;2024-02-26T15:32:06;9.60;98.90
57566;DHT22;63999;43.882;-0.310;2024-02-26T15:34:34;9.60;98.70
57566;DHT22;63999;43.882;-0.310;2024-02-26T15:37:01;9.60;98.70
57566;DHT22;63999;43.882;-0.310;2024-02-26T15:39:29;9.60;98.70
57566;DHT22;63999;43.882;-0.310;2024-02-26T15:41:56;9.60;98.70
57566;DHT22;63999;43.882;-0.310;2024-02-26T15:44:24;9.60;98.80